Terminal Aerodrome Forecast
Issued by NWS St Louis, MO

Home | Current Version | Previous Version | Text Only | Print | Product List | Glossary On
Versions: 1 2 3 4 5 6 7 8 9 10 11 12
231
FTUS43 KLSX 201120
TAFCOU
TAF
KCOU 201120Z 2012/2112 21009KT P6SM -SHRA VCTS OVC050CB
     FM201600 26010G16KT P6SM VCSH BKN040
     FM201800 30010G17KT P6SM BKN060
     FM202000 31011KT P6SM SCT130
     FM210100 33007KT P6SM FEW250
     FM210500 01006KT P6SM FEW200=

USA.gov is the U.S. government's official web portal to all federal, state and local government web resources and services.